createdAt,value
2016-05-24T00:00:42.310Z,94.46
2016-05-24T00:01:42.187Z,94.46
2016-05-24T00:02:42.347Z,94.84
2016-05-24T00:03:42.224Z,94.46
2016-05-24T00:04:42.384Z,94.56
2016-05-24T00:05:42.417Z,94.56
2016-05-24T00:06:42.420Z,95.08
2016-05-24T00:07:42.438Z,94.7
2016-05-24T00:08:42.472Z,94.7
2016-05-24T00:09:42.475Z,94.51
2016-05-24T00:10:42.493Z,94.51
2016-05-24T00:11:42.511Z,95.27
2016-05-24T00:12:42.530Z,95.27
2016-05-24T00:13:42.533Z,94.74
2016-05-24T00:14:42.410Z,94.6
2016-05-24T00:15:42.428Z,94.46
2016-05-24T00:16:42.588Z,94.93
2016-05-24T00:17:42.622Z,94.84
2016-05-24T00:18:42.671Z,94.41
2016-05-24T00:19:42.674Z,93.88
2016-05-24T00:20:42.677Z,95.08
2016-05-24T00:21:42.680Z,94.89
2016-05-24T00:22:42.697Z,94.7
2016-05-24T00:23:42.716Z,94.7
2016-05-24T00:24:42.718Z,94.79
2016-05-24T00:25:42.799Z,95.08
2016-05-24T00:26:42.785Z,94.7
2016-05-24T00:27:42.774Z,94.98
2016-05-24T00:28:42.838Z,94.6
2016-05-24T00:29:43.216Z,95.03
2016-05-24T00:30:42.828Z,94.51
2016-05-24T00:31:42.691Z,94.79
2016-05-24T00:32:42.881Z,93.93
2016-05-24T00:33:42.727Z,94.41
2016-05-24T00:34:42.917Z,94.22
2016-05-24T00:35:42.764Z,93.84
2016-05-24T00:36:42.953Z,93.93
2016-05-24T00:37:42.972Z,93.65
2016-05-24T00:38:42.990Z,93.84
2016-05-24T00:39:42.978Z,94.22
2016-05-24T00:40:43.012Z,94.89
2016-05-24T00:41:43.030Z,94.22
2016-05-24T00:42:43.033Z,94.41
2016-05-24T00:43:43.050Z,93.46
2016-05-24T00:44:43.600Z,93.74
2016-05-24T00:45:43.087Z,93.08
2016-05-24T00:46:43.122Z,92.69
2016-05-24T00:47:43.124Z,93.08
2016-05-24T00:48:43.127Z,92.88
2016-05-24T00:49:43.161Z,93.08
2016-05-24T00:50:43.023Z,93.08
2016-05-24T00:51:43.197Z,93.08
2016-05-24T00:52:43.200Z,92.69
2016-05-24T00:53:43.233Z,93.08
2016-05-24T00:54:43.236Z,93.08
2016-05-24T00:55:43.114Z,92.98
2016-05-24T00:56:43.289Z,93.84
2016-05-24T00:57:43.291Z,93.84
2016-05-24T00:58:43.326Z,93.65
2016-05-24T00:59:43.796Z,94.22
2016-05-24T01:00:43.373Z,93.55
2016-05-24T01:01:43.404Z,93.74
2016-05-24T01:02:43.466Z,93.65
2016-05-24T01:03:43.498Z,93.46
2016-05-24T01:04:43.544Z,93.84
2016-05-24T01:05:43.583Z,93.84
2016-05-24T01:06:43.628Z,93.84
2016-05-24T01:07:43.640Z,93.55
2016-05-24T01:08:43.654Z,93.27
2016-05-24T01:09:43.698Z,93.46
2016-05-24T01:10:43.708Z,93.55
2016-05-24T01:11:43.745Z,93.93
2016-05-24T01:12:43.752Z,93.74
2016-05-24T01:13:43.774Z,93.74
2016-05-24T01:14:43.796Z,92.88
2016-05-24T01:15:43.802Z,93.46
2016-05-24T01:16:43.821Z,93.74
2016-05-24T01:17:43.700Z,93.74
2016-05-24T01:18:43.860Z,93.17
2016-05-24T01:19:43.723Z,93.55
2016-05-24T01:20:43.758Z,93.74
2016-05-24T01:21:43.918Z,93.55
2016-05-24T01:22:43.951Z,93.17
2016-05-24T01:23:43.971Z,93.93
2016-05-24T01:24:43.973Z,94.22
2016-05-24T01:25:43.993Z,93.84
2016-05-24T01:26:43.854Z,93.93
2016-05-24T01:27:44.045Z,94.22
2016-05-24T01:28:44.047Z,93.93
2016-05-24T01:29:44.067Z,93.84
2016-05-24T01:30:44.069Z,93.74
2016-05-24T01:31:44.089Z,93.84
2016-05-24T01:32:44.107Z,93.17
2016-05-24T01:33:44.141Z,93.84
2016-05-24T01:34:44.143Z,93.74
2016-05-24T01:35:44.224Z,93.17
2016-05-24T01:36:44.226Z,94.03
2016-05-24T01:37:44.230Z,93.93
2016-05-24T01:38:44.233Z,94.03
2016-05-24T01:39:44.266Z,94.41
2016-05-24T01:40:44.300Z,94.12
2016-05-24T01:41:44.318Z,94.22
2016-05-24T01:42:44.321Z,93.65
2016-05-24T01:43:44.338Z,94.22
2016-05-24T01:44:44.327Z,94.22
2016-05-24T01:45:44.173Z,94.22
2016-05-24T01:46:44.363Z,94.32
2016-05-24T01:47:44.396Z,94.32
2016-05-24T01:48:44.399Z,93.74
2016-05-24T01:49:44.402Z,93.74
2016-05-24T01:50:44.421Z,93.74
2016-05-24T01:51:44.439Z,93.84
2016-05-24T01:52:44.457Z,94.03
2016-05-24T01:53:44.459Z,93.93
2016-05-24T01:54:44.478Z,94.22
2016-05-24T01:55:44.496Z,94.03
2016-05-24T01:56:44.515Z,94.03
2016-05-24T01:57:44.548Z,94.51
2016-05-24T01:58:44.551Z,94.12
2016-05-24T01:59:44.429Z,93.55
2016-05-24T02:00:44.432Z,93.55
2016-05-24T02:01:44.606Z,93.27
2016-05-24T02:02:44.640Z,93.74
2016-05-24T02:03:44.642Z,93.27
2016-05-24T02:04:44.661Z,93.36
2016-05-24T02:05:44.679Z,92.69
2016-05-24T02:06:44.698Z,92.88
2016-05-24T02:07:44.701Z,93.17
2016-05-24T02:08:44.735Z,93.84
2016-05-24T02:09:44.752Z,93.46
2016-05-24T02:10:44.755Z,93.65
2016-05-24T02:11:44.789Z,93.84
2016-05-24T02:12:44.808Z,93.36
2016-05-24T02:13:44.811Z,92.88
2016-05-24T02:14:44.844Z,92.98
2016-05-24T02:15:44.847Z,93.93
2016-05-24T02:16:44.865Z,93.55
2016-05-24T02:17:44.884Z,93.65
2016-05-24T02:18:44.902Z,92.98
2016-05-24T02:19:44.904Z,92.22
2016-05-24T02:20:44.939Z,92.79
2016-05-24T02:21:44.957Z,92.5
2016-05-24T02:22:44.959Z,92.22
2016-05-24T02:23:44.993Z,92.32
2016-05-24T02:24:45.012Z,92.27
2016-05-24T02:25:45.015Z,92.55
2016-05-24T02:26:45.033Z,92.74
2016-05-24T02:27:45.051Z,92.69
2016-05-24T02:28:44.914Z,92.46
2016-05-24T02:29:45.432Z,92.6
2016-05-24T02:30:45.106Z,92.46
2016-05-24T02:31:45.125Z,92.46
2016-05-24T02:32:45.158Z,92.32
2016-05-24T02:33:45.145Z,92.5
2016-05-24T02:34:45.179Z,91.93
2016-05-24T02:35:45.245Z,92.5
2016-05-24T02:36:45.075Z,92.46
2016-05-24T02:37:45.234Z,92.84
2016-05-24T02:38:45.252Z,92.93
2016-05-24T02:39:45.255Z,92.27
2016-05-24T02:40:45.258Z,92.08
2016-05-24T02:41:45.277Z,92.55
2016-05-24T02:42:45.342Z,92.22
2016-05-24T02:43:45.360Z,91.93
2016-05-24T02:44:45.362Z,91.55
2016-05-24T02:45:45.396Z,91.74
2016-05-24T02:46:45.383Z,91.74
2016-05-24T02:47:45.543Z,92.17
2016-05-24T02:48:45.296Z,91.22
2016-05-24T02:49:45.470Z,91.13
2016-05-24T02:50:45.504Z,91.88
2016-05-24T02:51:45.412Z,92.46
2016-05-24T02:52:45.509Z,92.27
2016-05-24T02:53:45.512Z,92.65
2016-05-24T02:54:45.437Z,91.79
2016-05-24T02:55:45.517Z,91.88
2016-05-24T02:56:45.535Z,92.08
2016-05-24T02:57:45.554Z,92.17
2016-05-24T02:58:45.557Z,92.46
2016-05-24T02:59:45.590Z,92.79
2016-05-24T03:00:45.609Z,92.55
2016-05-24T03:01:45.470Z,91.79
2016-05-24T03:02:45.630Z,92.55
2016-05-24T03:03:45.508Z,92.46
2016-05-24T03:04:45.526Z,91.88
2016-05-24T03:05:45.684Z,92.55
2016-05-24T03:06:45.719Z,92.32
2016-05-24T03:07:45.737Z,92.84
2016-05-24T03:08:45.755Z,93.32
2016-05-24T03:09:45.742Z,93.12
2016-05-24T03:10:45.792Z,92.65
2016-05-24T03:11:45.794Z,92.27
2016-05-24T03:12:45.813Z,92.84
2016-05-24T03:13:45.815Z,92.65
2016-05-24T03:14:45.833Z,92.65
2016-05-24T03:15:45.836Z,92.27
2016-05-24T03:16:45.886Z,92.65
2016-05-24T03:17:45.889Z,93.12
2016-05-24T03:18:45.907Z,93.03
2016-05-24T03:19:45.925Z,92.84
2016-05-24T03:20:45.943Z,93.22
2016-05-24T03:21:45.806Z,92.84
2016-05-24T03:22:45.824Z,93.12
2016-05-24T03:23:45.827Z,93.03
2016-05-24T03:24:46.001Z,93.12
2016-05-24T03:25:46.035Z,93.12
2016-05-24T03:26:46.038Z,92.84
2016-05-24T03:27:46.056Z,93.03
2016-05-24T03:28:46.090Z,93.51
2016-05-24T03:29:45.953Z,93.6
2016-05-24T03:30:46.111Z,93.6
2016-05-24T03:31:46.129Z,93.7
2016-05-24T03:32:46.148Z,93.7
2016-05-24T03:33:46.166Z,93.51
2016-05-24T03:34:46.184Z,93.88
2016-05-24T03:35:46.187Z,93.98
2016-05-24T03:36:46.205Z,94.37
2016-05-24T03:37:46.225Z,94.27
2016-05-24T03:38:46.242Z,94.08
2016-05-24T03:39:46.261Z,94.46
2016-05-24T03:40:46.278Z,94.17
2016-05-24T03:41:46.297Z,93.88
2016-05-24T03:42:46.158Z,93.7
2016-05-24T03:43:46.319Z,93.7
2016-05-24T03:44:46.352Z,93.6
2016-05-24T03:45:46.355Z,94.08
2016-05-24T03:46:46.373Z,93.51
2016-05-24T03:47:46.391Z,93.12
2016-05-24T03:48:46.409Z,93.12
2016-05-24T03:49:46.428Z,93.6
2016-05-24T03:50:46.290Z,93.7
2016-05-24T03:51:46.480Z,93.79
2016-05-24T03:52:46.326Z,93.22
2016-05-24T03:53:46.502Z,93.6
2016-05-24T03:54:46.363Z,93.88
2016-05-24T03:55:46.538Z,93.6
2016-05-24T03:56:46.540Z,92.46
2016-05-24T03:57:46.559Z,92.84
2016-05-24T03:58:46.624Z,93.79
2016-05-24T03:59:46.642Z,93.6
2016-05-24T04:00:46.629Z,93.51
2016-05-24T04:01:46.632Z,93.41
2016-05-24T04:02:46.681Z,93.6
2016-05-24T04:03:46.684Z,93.7
2016-05-24T04:04:46.515Z,93.7
2016-05-24T04:05:46.737Z,93.7
2016-05-24T04:06:46.739Z,93.6
2016-05-24T04:07:46.758Z,93.6
2016-05-24T04:08:46.775Z,93.41
2016-05-24T04:09:46.810Z,94.17
2016-05-24T04:10:46.813Z,94.56
2016-05-24T04:11:46.800Z,94.56
2016-05-24T04:12:46.693Z,95.12
2016-05-24T04:13:46.821Z,94.37
2016-05-24T04:14:46.854Z,95.03
2016-05-24T04:15:46.872Z,94.37
2016-05-24T04:16:46.876Z,94.79
2016-05-24T04:17:46.785Z,94.32
2016-05-24T04:18:46.913Z,95.08
2016-05-24T04:19:46.821Z,94.41
2016-05-24T04:20:46.964Z,95.46
2016-05-24T04:21:46.952Z,95.27
2016-05-24T04:22:46.985Z,94.7
2016-05-24T04:23:47.004Z,94.32
2016-05-24T04:24:47.007Z,94.13
2016-05-24T04:25:47.024Z,94.32
2016-05-24T04:26:47.043Z,94.37
2016-05-24T04:27:47.061Z,94.22
2016-05-24T04:28:46.924Z,93.17
2016-05-24T04:29:46.942Z,93.46
2016-05-24T04:30:47.101Z,93.37
2016-05-24T04:31:46.978Z,94.22
2016-05-24T04:32:47.153Z,93.65
2016-05-24T04:33:47.171Z,93.74
2016-05-24T04:34:47.190Z,93.46
2016-05-24T04:35:47.208Z,93.12
2016-05-24T04:36:47.211Z,92.84
2016-05-24T04:37:47.072Z,92.89
2016-05-24T04:38:47.247Z,92.79
2016-05-24T04:39:47.266Z,92.22
2016-05-24T04:40:47.284Z,92.41
2016-05-24T04:41:47.286Z,92.32
2016-05-24T04:42:47.320Z,92.89
2016-05-24T04:43:47.338Z,91.65
2016-05-24T04:44:48.170Z,92.22
2016-05-24T04:45:47.344Z,92.32
2016-05-24T04:46:47.410Z,91.5
2016-05-24T04:47:47.396Z,90.74
2016-05-24T04:48:47.415Z,91.55
2016-05-24T04:49:47.260Z,91.46
2016-05-24T04:50:47.436Z,91.08
2016-05-24T04:51:47.470Z,91.65
2016-05-24T04:52:47.457Z,90.6
2016-05-24T04:53:47.490Z,91.27
2016-05-24T04:54:47.337Z,91.27
2016-05-24T04:55:47.527Z,90.64
2016-05-24T04:56:47.546Z,90.64
2016-05-24T04:57:47.565Z,90.6
2016-05-24T04:58:47.582Z,90.12
2016-05-24T04:59:47.694Z,90.6
2016-05-24T05:00:47.932Z,90.22
2016-05-24T05:01:47.496Z,90.7
2016-05-24T05:02:47.640Z,91.46
2016-05-24T05:03:47.659Z,91.13
2016-05-24T05:04:47.676Z,90.64
2016-05-24T05:05:47.539Z,90.08
2016-05-24T05:06:47.744Z,89.98
2016-05-24T05:07:47.606Z,90.36
2016-05-24T05:08:47.750Z,89.6
2016-05-24T05:09:47.753Z,90.31
2016-05-24T05:10:47.802Z,89.98
2016-05-24T05:11:47.836Z,90.03
2016-05-24T05:12:47.839Z,89.4
2016-05-24T05:13:47.717Z,89.17
2016-05-24T05:14:47.922Z,89.46
2016-05-24T05:15:47.863Z,89.84
2016-05-24T05:16:47.865Z,89.75
2016-05-24T05:17:47.899Z,89.55
2016-05-24T05:18:47.902Z,89.17
2016-05-24T05:19:47.764Z,89.17
2016-05-24T05:20:47.782Z,89.46
2016-05-24T05:21:47.957Z,89.46
2016-05-24T05:22:47.975Z,89.26
2016-05-24T05:23:47.978Z,89.55
2016-05-24T05:24:48.011Z,89.26
2016-05-24T05:25:48.015Z,88.7
2016-05-24T05:26:48.049Z,89.36
2016-05-24T05:27:48.035Z,89.36
2016-05-24T05:28:48.068Z,89.36
2016-05-24T05:29:48.368Z,89.46
2016-05-24T05:30:48.106Z,89.26
2016-05-24T05:31:48.124Z,89.69
2016-05-24T05:32:47.986Z,88.84
2016-05-24T05:33:48.146Z,89.22
2016-05-24T05:34:48.164Z,89.31
2016-05-24T05:35:48.181Z,89.6
2016-05-24T05:36:48.201Z,89.31
2016-05-24T05:37:48.203Z,89.5
2016-05-24T05:38:48.236Z,89.31
2016-05-24T05:39:48.083Z,89.5
2016-05-24T05:40:48.258Z,89.69
2016-05-24T05:41:48.276Z,89.5
2016-05-24T05:42:48.294Z,89.79
2016-05-24T05:43:48.313Z,90.36
2016-05-24T05:44:48.331Z,89.6
2016-05-24T05:45:48.489Z,89.5
2016-05-24T05:46:48.383Z,89.89
2016-05-24T05:47:48.385Z,90.26
2016-05-24T05:48:48.404Z,90.36
2016-05-24T05:49:48.408Z,90.93
2016-05-24T05:50:48.441Z,91.03
2016-05-24T05:51:48.444Z,91.41
2016-05-24T05:52:48.462Z,90.64
2016-05-24T05:53:48.480Z,90.45
2016-05-24T05:54:48.498Z,91.22
2016-05-24T05:55:48.532Z,90.93
2016-05-24T05:56:48.535Z,91.03
2016-05-24T05:57:48.538Z,91.31
2016-05-24T05:58:48.556Z,90.45
2016-05-24T05:59:48.840Z,90.55
2016-05-24T06:00:48.593Z,90.64
2016-05-24T06:01:48.611Z,90.26
2016-05-24T06:02:48.473Z,90.64
2016-05-24T06:03:48.631Z,90.45
2016-05-24T06:04:48.651Z,90.74
2016-05-24T06:05:48.528Z,91.13
2016-05-24T06:06:48.531Z,91.41
2016-05-24T06:07:48.720Z,91.88
2016-05-24T06:08:48.723Z,90.84
2016-05-24T06:09:48.741Z,91.88
2016-05-24T06:10:49.681Z,91.88
2016-05-24T06:11:48.795Z,91.88
2016-05-24T06:12:49.766Z,91.5
2016-05-24T06:13:51.064Z,91.6
2016-05-24T06:14:49.022Z,91.5
2016-05-24T06:15:49.070Z,91.69
2016-05-24T06:16:48.869Z,91.79
2016-05-24T06:17:50.216Z,91.79
2016-05-24T06:18:48.750Z,91.13
2016-05-24T06:19:48.925Z,91.84
2016-05-24T06:20:48.928Z,91.27
2016-05-24T06:21:48.961Z,91.74
2016-05-24T06:22:49.011Z,91.84
2016-05-24T06:23:49.029Z,91.08
2016-05-24T06:24:48.844Z,91.65
2016-05-24T06:25:49.051Z,92.41
2016-05-24T06:26:48.882Z,92.79
2016-05-24T06:27:49.102Z,93.17
2016-05-24T06:28:49.090Z,93.17
2016-05-24T06:29:49.233Z,92.5
2016-05-24T06:30:49.657Z,91.94
2016-05-24T06:31:49.113Z,92.6
2016-05-24T06:32:49.116Z,93.08
2016-05-24T06:33:49.135Z,93.65
2016-05-24T06:34:49.153Z,94.32
2016-05-24T06:35:49.171Z,93.93
2016-05-24T06:36:49.206Z,93.37
2016-05-24T06:37:49.208Z,92.98
2016-05-24T06:38:49.211Z,93.37
2016-05-24T06:39:49.245Z,93.74
2016-05-24T06:40:49.279Z,93.93
2016-05-24T06:41:49.265Z,94.79
2016-05-24T06:42:49.314Z,94.6
2016-05-24T06:43:49.317Z,94.22
2016-05-24T06:44:49.492Z,94.13
2016-05-24T06:45:49.183Z,94.22
2016-05-24T06:46:49.358Z,94.13
2016-05-24T06:47:49.375Z,94.32
2016-05-24T06:48:49.394Z,94.03
2016-05-24T06:49:49.256Z,93.65
2016-05-24T06:50:49.447Z,93.93
2016-05-24T06:51:49.433Z,94.13
2016-05-24T06:52:49.467Z,93.84
2016-05-24T06:53:49.469Z,93.79
2016-05-24T06:54:49.347Z,93.51
2016-05-24T06:55:49.507Z,93.22
2016-05-24T06:56:49.540Z,92.84
2016-05-24T06:57:49.543Z,92.36
2016-05-24T06:58:49.546Z,91.88
2016-05-24T06:59:49.674Z,91.69
2016-05-24T07:00:49.599Z,91.5
2016-05-24T07:01:49.616Z,91.69
2016-05-24T07:02:49.463Z,90.84
2016-05-24T07:03:49.637Z,90.55
2016-05-24T07:04:49.671Z,89.98
2016-05-24T07:05:49.690Z,90.55
2016-05-24T07:06:49.692Z,90.93
2016-05-24T07:07:49.695Z,91.13
2016-05-24T07:08:49.729Z,90.26
2016-05-24T07:09:49.748Z,89.31
2016-05-24T07:10:49.750Z,90.17
2016-05-24T07:11:49.628Z,90.17
2016-05-24T07:12:49.803Z,90.08
2016-05-24T07:13:49.806Z,90.08
2016-05-24T07:14:49.683Z,90.55
2016-05-24T07:15:49.841Z,89.69
2016-05-24T07:16:49.719Z,89.69
2016-05-24T07:17:49.862Z,90.03
2016-05-24T07:18:49.896Z,90.17
2016-05-24T07:19:49.742Z,90.03
2016-05-24T07:20:49.917Z,90.17
2016-05-24T07:21:49.983Z,90.08
2016-05-24T07:22:49.969Z,90.26
2016-05-24T07:23:49.972Z,90.45
2016-05-24T07:24:49.991Z,90.36
2016-05-24T07:25:50.009Z,90.45
2016-05-24T07:26:50.043Z,89.98
2016-05-24T07:27:50.077Z,89.98
2016-05-24T07:28:50.096Z,89.79
2016-05-24T07:29:50.285Z,89.75
2016-05-24T07:30:50.179Z,90.08
2016-05-24T07:31:50.134Z,88.93
2016-05-24T07:32:50.027Z,89.5
2016-05-24T07:33:50.187Z,89.12
2016-05-24T07:34:50.205Z,89.89
2016-05-24T07:35:50.192Z,90.12
2016-05-24T07:36:50.195Z,89.65
2016-05-24T07:37:50.213Z,89.89
2016-05-24T07:38:50.248Z,89.6
2016-05-24T07:39:50.234Z,90.12
2016-05-24T07:40:50.268Z,89.84
2016-05-24T07:41:50.348Z,90.17
2016-05-24T07:42:50.289Z,89.6
2016-05-24T07:43:50.136Z,89.89
2016-05-24T07:44:50.247Z,90.26
2016-05-24T07:45:50.345Z,90.03
2016-05-24T07:46:50.347Z,89.94
2016-05-24T07:47:50.396Z,89.65
2016-05-24T07:48:50.384Z,89.22
2016-05-24T07:49:50.402Z,89.22
2016-05-24T07:50:50.420Z,88.93
2016-05-24T07:51:50.439Z,88.41
2016-05-24T07:52:50.456Z,88.55
2016-05-24T07:53:50.459Z,87.98
2016-05-24T07:54:50.336Z,88.07
2016-05-24T07:55:50.496Z,88.26
2016-05-24T07:56:50.530Z,88.26
2016-05-24T07:57:50.533Z,88.26
2016-05-24T07:58:50.551Z,89.03
2016-05-24T07:59:50.569Z,88.84
2016-05-24T08:00:50.446Z,87.69
2016-05-24T08:01:50.605Z,88.89
2016-05-24T08:02:50.624Z,88.79
2016-05-24T08:03:50.486Z,89.84
2016-05-24T08:04:50.646Z,89.26
2016-05-24T08:05:50.507Z,89.5
2016-05-24T08:06:50.698Z,89.46
2016-05-24T08:07:50.543Z,89.46
2016-05-24T08:08:50.781Z,89.75
2016-05-24T08:09:50.752Z,89.36
2016-05-24T08:10:50.755Z,88.89
2016-05-24T08:11:50.773Z,89.26
2016-05-24T08:12:50.792Z,89.46
2016-05-24T08:13:50.810Z,89.26
2016-05-24T08:14:50.828Z,89.55
2016-05-24T08:15:51.784Z,89.26
2016-05-24T08:16:50.865Z,90.03
2016-05-24T08:17:50.899Z,89.65
2016-05-24T08:18:50.886Z,89.17
2016-05-24T08:19:50.888Z,89.36
2016-05-24T08:20:50.922Z,89.46
2016-05-24T08:21:50.942Z,88.89
2016-05-24T08:22:50.787Z,89.65
2016-05-24T08:23:50.962Z,88.07
2016-05-24T08:24:50.840Z,87.31
2016-05-24T08:25:50.842Z,87.84
2016-05-24T08:26:51.016Z,88.03
2016-05-24T08:27:51.129Z,87.98
2016-05-24T08:28:51.116Z,87.98
2016-05-24T08:29:51.072Z,87.98
2016-05-24T08:30:51.090Z,87.69
2016-05-24T08:31:51.108Z,88.07
2016-05-24T08:32:51.127Z,87.4
2016-05-24T08:33:51.301Z,87.21
2016-05-24T08:34:51.194Z,87.69
2016-05-24T08:35:51.182Z,87.98
2016-05-24T08:36:51.200Z,87.93
2016-05-24T08:37:51.202Z,87.84
2016-05-24T08:38:51.268Z,87.5
2016-05-24T08:39:51.332Z,88.31
2016-05-24T08:40:51.242Z,87.93
2016-05-24T08:41:51.354Z,87.84
2016-05-24T08:42:51.310Z,88.7
2016-05-24T08:43:51.344Z,88.89
2016-05-24T08:44:51.346Z,88.98
2016-05-24T08:45:51.224Z,88.7
2016-05-24T08:46:51.398Z,88.89
2016-05-24T08:47:51.354Z,89.55
2016-05-24T08:48:51.419Z,89.55
2016-05-24T08:49:51.234Z,88.41
2016-05-24T08:50:51.426Z,88.26
2016-05-24T08:51:51.475Z,88.17
2016-05-24T08:52:51.477Z,87.69
2016-05-24T08:53:51.480Z,87.69
2016-05-24T08:54:51.358Z,87.12
2016-05-24T08:55:51.344Z,86.93
2016-05-24T08:56:51.473Z,86.65
2016-05-24T08:57:51.538Z,86.74
2016-05-24T08:58:51.572Z,86.36
2016-05-24T08:59:51.590Z,86.45
2016-05-24T09:00:51.764Z,85.78
2016-05-24T09:01:51.642Z,86.36
2016-05-24T09:02:51.629Z,85.78
2016-05-24T09:03:51.523Z,86.55
2016-05-24T09:04:51.635Z,86.55
2016-05-24T09:05:51.809Z,85.78
2016-05-24T09:06:51.687Z,85.6
2016-05-24T09:07:51.549Z,86.36
2016-05-24T09:08:51.708Z,85.6
2016-05-24T09:09:51.726Z,85.97
2016-05-24T09:10:53.495Z,86.55
2016-05-24T09:11:51.607Z,86.07
2016-05-24T09:12:51.797Z,86.93
2016-05-24T09:13:51.643Z,87.31
2016-05-24T09:14:51.818Z,87.5
2016-05-24T09:15:53.540Z,87.31
2016-05-24T09:16:51.854Z,87.4
2016-05-24T09:17:51.873Z,86.55
2016-05-24T09:18:51.875Z,86.55
2016-05-24T09:19:51.753Z,86.93
2016-05-24T09:20:52.787Z,87.21
2016-05-24T09:21:51.931Z,86.93
2016-05-24T09:22:51.980Z,87.69
2016-05-24T09:23:52.295Z,87.12
2016-05-24T09:24:52.001Z,86.45
2016-05-24T09:25:52.004Z,86.45
2016-05-24T09:26:51.866Z,85.5
2016-05-24T09:27:52.040Z,85.31
2016-05-24T09:28:52.044Z,85.21
2016-05-24T09:29:51.921Z,86.16
2016-05-24T09:30:51.924Z,85.5
2016-05-24T09:31:52.098Z,85.31
2016-05-24T09:32:52.116Z,86.26
2016-05-24T09:33:52.150Z,85.31
2016-05-24T09:34:52.185Z,85.31
2016-05-24T09:35:52.015Z,85.5
2016-05-24T09:36:52.048Z,85.35
2016-05-24T09:37:52.255Z,85.12
2016-05-24T09:38:52.226Z,84.59
2016-05-24T09:39:52.244Z,83.83
2016-05-24T09:40:52.154Z,83.44
2016-05-24T09:41:52.312Z,84.59
2016-05-24T09:42:52.315Z,85.21
2016-05-24T09:43:52.318Z,84.07
2016-05-24T09:44:52.320Z,84.92
2016-05-24T09:45:52.198Z,85.02
2016-05-24T09:46:52.372Z,85.41
2016-05-24T09:47:52.407Z,84.36
2016-05-24T09:48:52.426Z,84.74
2016-05-24T09:49:52.552Z,84.74
2016-05-24T09:50:52.446Z,85.12
2016-05-24T09:51:52.339Z,84.64
2016-05-24T09:52:52.498Z,84.92
2016-05-24T09:53:52.579Z,85.12
2016-05-24T09:54:52.566Z,84.64
2016-05-24T09:55:52.397Z,85.31
2016-05-24T09:56:52.572Z,84.55
2016-05-24T09:57:52.542Z,84.74
2016-05-24T09:58:52.405Z,84.49
2016-05-24T09:59:52.564Z,83.59
2016-05-24T10:00:52.973Z,84.01
2016-05-24T10:01:52.616Z,84.59
2016-05-24T10:02:52.463Z,84.4
2016-05-24T10:03:52.638Z,83.73
2016-05-24T10:04:52.640Z,83.83
2016-05-24T10:05:52.751Z,83.59
2016-05-24T10:06:52.705Z,84.07
2016-05-24T10:07:52.746Z,84.55
2016-05-24T10:08:52.801Z,83.88
2016-05-24T10:09:52.842Z,84.36
2016-05-24T10:10:52.867Z,84.74
2016-05-24T10:11:52.898Z,85.31
2016-05-24T10:12:52.909Z,84.83
2016-05-24T10:13:52.935Z,84.64
2016-05-24T10:14:52.945Z,84.16
2016-05-24T10:15:53.598Z,84.55
2016-05-24T10:16:53.027Z,84.16
2016-05-24T10:17:53.033Z,83.88
2016-05-24T10:18:52.897Z,83.83
2016-05-24T10:19:53.090Z,82.97
2016-05-24T10:20:55.096Z,83.06
2016-05-24T10:21:53.178Z,82.97
2016-05-24T10:22:53.135Z,82.87
2016-05-24T10:23:53.139Z,82.78
2016-05-24T10:24:53.157Z,82.68
2016-05-24T10:25:53.193Z,81.92
2016-05-24T10:26:53.275Z,81.73
2016-05-24T10:27:53.215Z,81.54
2016-05-24T10:28:53.250Z,81.44
2016-05-24T10:29:53.253Z,82.3
2016-05-24T10:30:53.521Z,82.01
2016-05-24T10:31:53.196Z,81.92
2016-05-24T10:32:53.324Z,82.2
2016-05-24T10:33:53.326Z,83.44
2016-05-24T10:34:53.345Z,82.3
2016-05-24T10:35:53.190Z,82.01
2016-05-24T10:36:53.365Z,82.78
2016-05-24T10:37:53.446Z,83.44
2016-05-24T10:38:53.403Z,82.2
2016-05-24T10:39:53.436Z,81.63
2016-05-24T10:40:53.439Z,81.48
2016-05-24T10:41:53.551Z,80.91
2016-05-24T10:42:53.475Z,80.15
2016-05-24T10:43:53.494Z,79.77
2016-05-24T10:44:53.512Z,80.05
2016-05-24T10:45:53.608Z,79.1
2016-05-24T10:46:53.549Z,79.48
2016-05-24T10:47:53.583Z,78.72
2016-05-24T10:48:53.586Z,79.28
2016-05-24T10:49:53.603Z,79.96
2016-05-24T10:50:53.606Z,80.05
2016-05-24T10:51:53.625Z,79.77
2016-05-24T10:52:53.486Z,80.33
2016-05-24T10:53:53.521Z,81.29
2016-05-24T10:54:53.679Z,81.01
2016-05-24T10:55:53.698Z,80.91
2016-05-24T10:56:53.560Z,80.15
2016-05-24T10:57:53.782Z,79.77
2016-05-24T10:58:53.784Z,80.24
2016-05-24T10:59:53.630Z,80.87
2016-05-24T11:00:53.851Z,80.53
2016-05-24T11:01:54.246Z,80.58
2016-05-24T11:02:53.967Z,80.43
2016-05-24T11:03:53.891Z,80.24
2016-05-24T11:04:53.894Z,79.86
2016-05-24T11:05:53.912Z,79.77
2016-05-24T11:06:53.946Z,79.28
2016-05-24T11:07:53.965Z,78.72
2016-05-24T11:08:53.951Z,78.85
2016-05-24T11:09:53.954Z,77.89
2016-05-24T11:10:53.957Z,77.89
2016-05-24T11:11:54.178Z,78.05
2016-05-24T11:12:53.994Z,77.86
2016-05-24T11:13:54.183Z,78.09
2016-05-24T11:14:54.046Z,78.37
2016-05-24T11:15:54.142Z,78.56
2016-05-24T11:16:54.082Z,78.37
2016-05-24T11:17:54.086Z,78.47
2016-05-24T11:18:54.088Z,78.23
2016-05-24T11:19:54.122Z,77.95
2016-05-24T11:20:54.172Z,78.81
2016-05-24T11:21:54.158Z,79.1
2016-05-24T11:22:54.177Z,79.96
2016-05-24T11:23:54.195Z,78.91
2016-05-24T11:24:54.213Z,78.91
2016-05-24T11:25:54.216Z,79.38
2016-05-24T11:26:54.250Z,79.48
2016-05-24T11:27:54.268Z,79.28
2016-05-24T11:28:54.287Z,79.57
2016-05-24T11:29:54.290Z,79.57
2016-05-24T11:30:54.324Z,80.05
2016-05-24T11:31:54.326Z,79.86
2016-05-24T11:32:54.360Z,79.67
2016-05-24T11:33:54.363Z,79.1
2016-05-24T11:34:54.241Z,78.72
2016-05-24T11:35:54.399Z,78.14
2016-05-24T11:36:54.479Z,78.72
2016-05-24T11:37:54.451Z,79.06
2016-05-24T11:38:54.439Z,79.25
2016-05-24T11:39:54.457Z,79.72
2016-05-24T11:40:54.490Z,79.15
2016-05-24T11:41:54.509Z,79.28
2016-05-24T11:42:54.575Z,78.43
2016-05-24T11:43:54.545Z,78.05
2016-05-24T11:44:54.564Z,77.95
2016-05-24T11:45:55.175Z,78.33
2016-05-24T11:46:54.600Z,78.05
2016-05-24T11:47:54.713Z,76.65
2016-05-24T11:48:54.637Z,76.56
2016-05-24T11:49:54.640Z,75.7
2016-05-24T11:50:54.612Z,75.64
2016-05-24T11:51:54.535Z,75.16
2016-05-24T11:52:54.695Z,74.69
2016-05-24T11:53:54.776Z,72.91
2016-05-24T11:54:54.778Z,73.19
2016-05-24T11:55:54.797Z,72.81
2016-05-24T11:56:54.783Z,72.91
2016-05-24T11:57:54.802Z,72.62
2016-05-24T11:58:54.821Z,72.3
2016-05-24T11:59:54.666Z,73.63
2016-05-24T12:00:54.701Z,73.63
2016-05-24T12:01:54.922Z,73.54
2016-05-24T12:02:54.909Z,73.73
2016-05-24T12:03:54.912Z,74.69
2016-05-24T12:04:55.009Z,74.49
2016-05-24T12:05:54.996Z,74.88
2016-05-24T12:06:54.998Z,74.69
2016-05-24T12:07:55.079Z,73.63
2016-05-24T12:08:55.082Z,73.54
2016-05-24T12:09:55.023Z,73.35
2016-05-24T12:10:55.025Z,73.54
2016-05-24T12:11:55.043Z,73.25
2016-05-24T12:12:55.061Z,73.54
2016-05-24T12:13:55.079Z,72.49
2016-05-24T12:14:55.098Z,72.87
2016-05-24T12:15:55.116Z,73.16
2016-05-24T12:16:55.119Z,72.3
2016-05-24T12:17:55.153Z,72.39
2016-05-24T12:18:55.297Z,71.38
2016-05-24T12:19:55.189Z,70.61
2016-05-24T12:20:55.222Z,70.9
2016-05-24T12:21:55.211Z,71.57
2016-05-24T12:22:55.244Z,72.3
2016-05-24T12:23:55.263Z,71.57
2016-05-24T12:24:55.280Z,71.09
2016-05-24T12:25:55.316Z,70.61
2016-05-24T12:26:55.302Z,70.33
2016-05-24T12:27:55.163Z,70.42
2016-05-24T12:28:55.354Z,70.81
2016-05-24T12:29:55.388Z,71
2016-05-24T12:30:55.454Z,70.71
2016-05-24T12:31:55.410Z,70.81
2016-05-24T12:32:55.443Z,70.71
2016-05-24T12:33:55.446Z,70.42
2016-05-24T12:34:55.465Z,70.9
2016-05-24T12:35:55.499Z,70.42
2016-05-24T12:36:55.516Z,70.52
2016-05-24T12:37:55.519Z,70.61
2016-05-24T12:38:55.553Z,70.81
2016-05-24T12:39:55.399Z,70.42
2016-05-24T12:40:55.574Z,70.14
2016-05-24T12:41:55.592Z,70.33
2016-05-24T12:42:55.611Z,70.14
2016-05-24T12:43:55.644Z,70.42
2016-05-24T12:44:55.662Z,70.71
2016-05-24T12:45:55.557Z,70.87
2016-05-24T12:46:55.778Z,71.34
2016-05-24T12:47:55.827Z,71.06
2016-05-24T12:48:55.720Z,71.53
2016-05-24T12:49:55.598Z,71.72
2016-05-24T12:50:55.758Z,71.34
2016-05-24T12:51:55.776Z,71.15
2016-05-24T12:52:55.794Z,70.52
2016-05-24T12:53:55.828Z,70.23
2016-05-24T12:54:55.831Z,69.37
2016-05-24T12:55:55.849Z,69.27